Terminal Aerodrome Forecast
Issued by NWS North Platte, NE

Home | Current Version | Previous Version | Graphics & Text | Print | Product List | Glossary On
Versions: 1 2 3 4 5 6 7 8 9 10 11 12 13 14 15 16 17 18 19
000
FTUS43 KLBF 241835 AAA
TAFVTN
TAF AMD
KVTN 241835Z 2419/2518 VRB03KT P6SM SCT120
     FM242300 11012G19KT P6SM VCTS SCT090CB BKN250
     FM250600 VRB05KT P6SM VCSH BKN050
     FM250900 VRB05KT P6SM BKN250=

USA.gov is the U.S. government's official web portal to all federal, state and local government web resources and services.